createdAt,value
2022-08-08T00:00:54.228Z,12.10
2022-08-08T00:03:32.237Z,12.10
2022-08-08T00:06:28.752Z,12.10
2022-08-08T00:09:20.326Z,12.10
2022-08-08T00:12:09.566Z,12.10
2022-08-08T00:15:15.381Z,11.90
2022-08-08T00:18:08.532Z,12.00
2022-08-08T00:20:53.301Z,11.90
2022-08-08T00:23:51.745Z,11.80
2022-08-08T00:26:30.065Z,11.90
2022-08-08T00:29:17.565Z,12.00
2022-08-08T00:32:35.866Z,12.00
2022-08-08T00:35:42.646Z,11.90
2022-08-08T00:39:00.290Z,11.90
2022-08-08T00:42:07.999Z,11.80
2022-08-08T00:45:27.249Z,11.70
2022-08-08T00:48:36.803Z,11.70
2022-08-08T00:51:15.251Z,11.50
2022-08-08T00:54:18.552Z,11.50
2022-08-08T00:57:40.743Z,11.60
2022-08-08T01:00:26.753Z,11.70
2022-08-08T01:04:01.885Z,11.80
2022-08-08T01:06:47.524Z,11.90
2022-08-08T01:09:58.900Z,11.70
2022-08-08T01:13:15.143Z,11.70
2022-08-08T01:16:37.171Z,11.70
2022-08-08T01:20:03.294Z,11.80
2022-08-08T01:24:02.390Z,12.00
2022-08-08T01:26:27.503Z,12.00
2022-08-08T01:29:35.338Z,12.00
2022-08-08T01:32:23.405Z,12.00
2022-08-08T01:35:30.611Z,12.10
2022-08-08T01:38:40.616Z,12.10
2022-08-08T01:42:08.314Z,12.00
2022-08-08T01:45:09.829Z,12.10
2022-08-08T01:48:23.344Z,12.20
2022-08-08T01:52:05.114Z,12.30
2022-08-08T01:55:45.149Z,12.30
2022-08-08T01:58:46.954Z,12.20
2022-08-08T02:02:08.465Z,12.20
2022-08-08T02:05:55.696Z,12.30
2022-08-08T02:08:49.622Z,12.20
2022-08-08T02:11:53.210Z,12.30
2022-08-08T02:15:11.083Z,12.40
2022-08-08T02:18:16.074Z,12.40
2022-08-08T02:21:18.299Z,12.40
2022-08-08T02:27:18.707Z,12.60
2022-08-08T02:30:08.150Z,12.50
2022-08-08T02:33:21.553Z,12.50
2022-08-08T02:36:39.665Z,12.40
2022-08-08T02:39:58.317Z,12.50
2022-08-08T02:44:37.083Z,12.60
2022-08-08T02:46:50.666Z,12.50
2022-08-08T02:50:03.787Z,12.70
2022-08-08T02:52:50.287Z,12.70
2022-08-08T02:56:26.649Z,12.80
2022-08-08T02:59:58.528Z,12.90
2022-08-08T03:05:00.926Z,13.10
2022-08-08T03:06:47.143Z,13.10
2022-08-08T03:10:17.919Z,13.20
2022-08-08T03:15:56.873Z,13.40
2022-08-08T03:17:02.235Z,13.40
2022-08-08T03:20:08.320Z,13.40
2022-08-08T03:22:57.050Z,13.50
2022-08-08T03:25:35.893Z,13.40
2022-08-08T03:28:37.955Z,13.60
2022-08-08T03:31:26.972Z,13.60
2022-08-08T03:34:06.558Z,13.60
2022-08-08T03:36:43.994Z,13.80
2022-08-08T03:39:16.080Z,13.70
2022-08-08T03:42:28.528Z,13.80
2022-08-08T03:44:40.145Z,13.80
2022-08-08T03:47:22.175Z,13.80
2022-08-08T03:50:00.067Z,13.80
2022-08-08T03:52:36.357Z,13.80
2022-08-08T03:55:56.372Z,13.90
2022-08-08T03:58:35.256Z,14.00
2022-08-08T04:01:23.298Z,14.10
2022-08-08T04:03:58.835Z,14.20
2022-08-08T04:06:30.714Z,14.40
2022-08-08T04:09:11.451Z,14.50
2022-08-08T04:11:58.223Z,14.70
2022-08-08T04:14:34.437Z,14.90
2022-08-08T04:17:04.572Z,15.00
2022-08-08T04:19:36.572Z,15.10
2022-08-08T04:22:05.131Z,15.20
2022-08-08T04:24:40.188Z,15.30
2022-08-08T04:27:42.980Z,15.40
2022-08-08T04:30:17.329Z,15.50
2022-08-08T04:32:50.428Z,15.60
2022-08-08T04:35:23.193Z,15.80
2022-08-08T04:37:54.365Z,15.90
2022-08-08T04:40:27.586Z,16.00
2022-08-08T04:43:01.101Z,16.10
2022-08-08T04:45:40.541Z,16.20
2022-08-08T04:48:09.253Z,16.40
2022-08-08T04:50:44.528Z,16.80
2022-08-08T04:54:27.145Z,16.90
2022-08-08T04:56:09.003Z,16.70
2022-08-08T04:58:38.291Z,16.80
2022-08-08T05:01:11.230Z,17.00
2022-08-08T05:04:11.443Z,17.90
2022-08-08T05:06:39.332Z,18.90
2022-08-08T05:09:08.937Z,19.60
2022-08-08T05:11:41.384Z,19.70
2022-08-08T05:14:14.125Z,19.80
2022-08-08T05:16:50.968Z,20.20
2022-08-08T05:20:12.630Z,19.80
2022-08-08T05:22:13.635Z,19.30
2022-08-08T05:24:48.958Z,19.00
2022-08-08T05:27:20.427Z,18.80
2022-08-08T05:29:50.224Z,18.80
2022-08-08T05:32:24.728Z,18.80
2022-08-08T05:35:04.385Z,18.90
2022-08-08T05:37:53.829Z,19.20
2022-08-08T05:40:35.164Z,20.30
2022-08-08T05:43:38.610Z,20.70
2022-08-08T05:46:08.552Z,20.70
2022-08-08T05:48:41.947Z,22.30
2022-08-08T05:51:15.537Z,24.30
2022-08-08T05:53:56.290Z,24.20
2022-08-08T05:56:47.539Z,23.40
2022-08-08T05:59:59.428Z,22.70
2022-08-08T06:02:43.945Z,22.00
2022-08-08T06:05:34.045Z,21.50
2022-08-08T06:08:09.755Z,21.50
2022-08-08T06:10:50.514Z,21.30
2022-08-08T06:13:23.228Z,21.00
2022-08-08T06:15:56.622Z,20.70
2022-08-08T06:18:32.201Z,20.60
2022-08-08T06:21:03.603Z,20.50
2022-08-08T06:23:52.735Z,20.40
2022-08-08T06:26:44.804Z,20.60
2022-08-08T06:29:59.264Z,20.90
2022-08-08T06:32:32.239Z,21.20
2022-08-08T06:36:06.280Z,21.40
2022-08-08T06:38:14.252Z,21.50
2022-08-08T06:40:54.125Z,21.80
2022-08-08T06:43:34.629Z,21.90
2022-08-08T06:46:08.764Z,21.90
2022-08-08T06:48:38.467Z,21.70
2022-08-08T06:51:11.607Z,21.50
2022-08-08T06:53:50.968Z,21.20
2022-08-08T06:56:32.266Z,21.30
2022-08-08T06:59:02.359Z,21.30
2022-08-08T07:02:27.655Z,21.50
2022-08-08T07:04:58.595Z,21.70
2022-08-08T07:08:06.396Z,21.90
2022-08-08T07:10:46.266Z,22.20
2022-08-08T07:13:22.936Z,22.30
2022-08-08T07:16:17.762Z,22.30
2022-08-08T07:19:32.577Z,23.00
2022-08-08T07:22:12.164Z,22.70
2022-08-08T07:25:02.484Z,22.80
2022-08-08T07:28:01.909Z,22.40
2022-08-08T07:30:36.602Z,22.10
2022-08-08T07:33:05.004Z,21.70
2022-08-08T07:35:35.723Z,21.80
2022-08-08T07:38:18.355Z,21.40
2022-08-08T07:41:04.574Z,21.00
2022-08-08T07:43:38.037Z,21.30
2022-08-08T07:46:23.332Z,21.30
2022-08-08T07:49:01.150Z,20.80
2022-08-08T07:51:44.734Z,21.30
2022-08-08T07:54:41.418Z,21.70
2022-08-08T07:57:21.091Z,21.70
2022-08-08T08:00:05.522Z,22.40
2022-08-08T08:03:20.321Z,23.00
2022-08-08T08:05:53.361Z,23.00
2022-08-08T08:09:00.633Z,22.90
2022-08-08T08:11:38.326Z,23.10
2022-08-08T08:14:49.936Z,24.10
2022-08-08T08:17:21.059Z,24.90
2022-08-08T08:19:55.805Z,25.30
2022-08-08T08:22:31.303Z,25.10
2022-08-08T08:25:08.301Z,25.40
2022-08-08T08:27:39.348Z,25.60
2022-08-08T08:30:15.902Z,24.60
2022-08-08T08:32:51.541Z,25.10
2022-08-08T08:35:21.432Z,24.40
2022-08-08T08:38:17.506Z,25.00
2022-08-08T08:40:51.323Z,25.40
2022-08-08T08:43:28.965Z,26.90
2022-08-08T08:46:03.628Z,27.10
2022-08-08T08:48:36.850Z,28.30
2022-08-08T08:51:16.645Z,27.90
2022-08-08T08:53:55.946Z,28.20
2022-08-08T08:56:36.140Z,27.90
2022-08-08T08:59:15.680Z,27.20
2022-08-08T09:01:57.913Z,29.20
2022-08-08T09:04:39.599Z,29.60
2022-08-08T09:07:24.056Z,29.90
2022-08-08T09:10:17.117Z,31.50
2022-08-08T09:12:50.953Z,33.70
2022-08-08T09:15:41.456Z,34.50
2022-08-08T09:18:09.603Z,30.20
2022-08-08T09:21:58.132Z,29.10
2022-08-08T09:23:33.723Z,27.00
2022-08-08T09:26:27.186Z,25.30
2022-08-08T09:29:09.504Z,24.60
2022-08-08T09:32:00.685Z,24.50
2022-08-08T09:34:42.133Z,24.30
2022-08-08T09:37:46.314Z,24.40
2022-08-08T09:40:13.281Z,24.10
2022-08-08T09:42:51.656Z,24.10
2022-08-08T09:46:00.885Z,24.20
2022-08-08T09:48:26.991Z,24.20
2022-08-08T09:51:05.142Z,24.50
2022-08-08T09:53:59.910Z,24.90
2022-08-08T09:56:41.117Z,24.80
2022-08-08T10:00:02.412Z,24.60
2022-08-08T10:02:25.089Z,24.30
2022-08-08T10:05:14.629Z,23.50
2022-08-08T10:07:59.778Z,22.80
2022-08-08T10:10:50.142Z,22.20
2022-08-08T10:13:29.977Z,22.00
2022-08-08T10:16:05.422Z,22.00
2022-08-08T10:18:36.670Z,22.50
2022-08-08T10:21:26.114Z,23.20
2022-08-08T10:24:28.283Z,24.40
2022-08-08T10:27:04.612Z,25.40
2022-08-08T10:29:58.789Z,26.00
2022-08-08T10:32:39.082Z,26.60
2022-08-08T10:35:20.196Z,27.40
2022-08-08T10:38:13.601Z,27.50
2022-08-08T10:40:45.932Z,28.00
2022-08-08T10:43:14.587Z,26.80
2022-08-08T10:45:55.119Z,26.70
2022-08-08T10:48:56.969Z,27.00
2022-08-08T10:51:47.152Z,26.90
2022-08-08T10:54:25.013Z,26.50
2022-08-08T10:57:03.813Z,26.80
2022-08-08T10:59:39.867Z,26.00
2022-08-08T11:02:11.186Z,24.80
2022-08-08T11:04:53.193Z,25.40
2022-08-08T11:08:31.622Z,25.50
2022-08-08T11:10:29.250Z,26.10
2022-08-08T11:15:58.792Z,25.40
2022-08-08T11:18:30.579Z,23.80
2022-08-08T11:21:08.864Z,23.60
2022-08-08T11:23:43.119Z,23.50
2022-08-08T11:26:18.925Z,23.50
2022-08-08T11:28:50.223Z,23.10
2022-08-08T11:31:20.764Z,22.60
2022-08-08T11:34:03.290Z,22.10
2022-08-08T11:36:36.480Z,21.90
2022-08-08T11:39:11.078Z,21.70
2022-08-08T11:41:43.262Z,21.30
2022-08-08T11:44:15.024Z,21.00
2022-08-08T11:46:43.848Z,21.00
2022-08-08T11:49:14.072Z,20.90
2022-08-08T11:51:49.877Z,20.80
2022-08-08T11:54:33.584Z,20.80
2022-08-08T11:57:17.417Z,20.90
2022-08-08T12:00:06.265Z,20.90
2022-08-08T12:02:57.392Z,20.90
2022-08-08T12:05:41.596Z,20.90
2022-08-08T12:08:10.392Z,21.00
2022-08-08T12:10:51.673Z,20.80
2022-08-08T12:13:38.107Z,20.90
2022-08-08T12:16:17.645Z,21.00
2022-08-08T12:18:56.235Z,21.10
2022-08-08T12:21:59.151Z,21.30
2022-08-08T12:24:28.050Z,21.50
2022-08-08T12:26:58.637Z,22.20
2022-08-08T12:29:40.864Z,22.80
2022-08-08T12:32:20.999Z,23.50
2022-08-08T12:35:04.378Z,24.00
2022-08-08T12:37:41.284Z,24.80
2022-08-08T12:40:22.371Z,26.20
2022-08-08T12:42:53.762Z,26.50
2022-08-08T12:45:59.325Z,26.30
2022-08-08T12:48:37.268Z,26.20
2022-08-08T12:51:11.255Z,26.50
2022-08-08T12:54:00.050Z,26.50
2022-08-08T12:56:37.432Z,26.00
2022-08-08T12:59:36.673Z,24.80
2022-08-08T13:02:28.532Z,23.90
2022-08-08T13:05:00.220Z,23.20
2022-08-08T13:08:03.044Z,22.10
2022-08-08T13:10:36.520Z,21.50
2022-08-08T13:13:28.624Z,21.40
2022-08-08T13:16:21.567Z,21.40
2022-08-08T13:19:07.958Z,21.50
2022-08-08T13:21:53.145Z,21.90
2022-08-08T13:24:42.407Z,22.60
2022-08-08T13:27:22.347Z,23.30
2022-08-08T13:29:59.428Z,23.30
2022-08-08T13:32:35.926Z,23.30
2022-08-08T13:35:24.465Z,23.40
2022-08-08T13:38:08.427Z,24.10
2022-08-08T13:40:45.109Z,23.60
2022-08-08T13:43:16.469Z,22.90
2022-08-08T13:45:47.277Z,22.40
2022-08-08T13:48:25.770Z,22.60
2022-08-08T13:50:58.024Z,22.90
2022-08-08T13:54:00.019Z,23.00
2022-08-08T13:57:00.215Z,22.30
2022-08-08T13:59:49.358Z,21.60
2022-08-08T14:02:33.108Z,21.40
2022-08-08T14:05:20.230Z,21.30
2022-08-08T14:07:52.217Z,21.30
2022-08-08T14:10:33.735Z,21.20
2022-08-08T14:13:21.035Z,21.10
2022-08-08T14:16:16.090Z,20.80
2022-08-08T14:18:58.027Z,20.60
2022-08-08T14:21:48.592Z,20.70
2022-08-08T14:24:34.305Z,20.80
2022-08-08T14:27:07.809Z,20.70
2022-08-08T14:29:40.355Z,20.50
2022-08-08T14:32:16.111Z,20.40
2022-08-08T14:35:06.764Z,20.20
2022-08-08T14:37:59.620Z,20.20
2022-08-08T14:40:29.944Z,20.30
2022-08-08T14:43:01.452Z,20.30
2022-08-08T14:45:46.904Z,20.50
2022-08-08T14:48:34.038Z,20.40
2022-08-08T14:51:07.576Z,20.20
2022-08-08T14:53:54.716Z,20.30
2022-08-08T14:56:26.376Z,20.30
2022-08-08T14:58:55.257Z,20.30
2022-08-08T15:01:37.419Z,20.30
2022-08-08T15:04:11.076Z,20.70
2022-08-08T15:06:39.013Z,20.90
2022-08-08T15:09:07.402Z,21.20
2022-08-08T15:11:42.894Z,21.20
2022-08-08T15:14:15.270Z,21.10
2022-08-08T15:16:44.206Z,21.00
2022-08-08T15:19:15.057Z,20.80
2022-08-08T15:21:44.838Z,21.00
2022-08-08T15:24:15.911Z,20.90
2022-08-08T15:26:52.304Z,21.10
2022-08-08T15:29:24.534Z,21.40
2022-08-08T15:32:03.913Z,21.20
2022-08-08T15:34:42.797Z,21.50
2022-08-08T15:37:10.775Z,21.40
2022-08-08T15:39:41.034Z,21.60
2022-08-08T15:42:13.476Z,21.50
2022-08-08T15:44:57.470Z,22.00
2022-08-08T15:47:25.448Z,21.80
2022-08-08T15:49:53.574Z,21.70
2022-08-08T15:52:24.861Z,21.50
2022-08-08T15:54:53.542Z,21.40
2022-08-08T15:57:23.371Z,21.40
2022-08-08T16:00:05.282Z,21.50
2022-08-08T16:02:50.556Z,21.20
2022-08-08T16:05:21.531Z,21.40
2022-08-08T16:07:53.952Z,21.60
2022-08-08T16:13:11.480Z,21.50
2022-08-08T16:13:33.861Z,21.50
2022-08-08T16:16:09.330Z,21.20
2022-08-08T16:18:57.380Z,21.00
2022-08-08T16:21:30.104Z,20.90
2022-08-08T16:24:10.281Z,20.70
2022-08-08T16:26:42.258Z,20.40
2022-08-08T16:29:16.334Z,20.20
2022-08-08T16:31:48.872Z,20.20
2022-08-08T16:34:21.295Z,20.10
2022-08-08T16:36:50.363Z,20.10
2022-08-08T16:40:01.000Z,20.00
2022-08-08T16:42:17.665Z,19.70
2022-08-08T16:44:55.163Z,19.50
2022-08-08T16:47:31.448Z,19.40
2022-08-08T16:50:14.215Z,19.30
2022-08-08T16:55:24.297Z,19.10
2022-08-08T16:55:55.296Z,19.00
2022-08-08T16:58:30.949Z,19.00
2022-08-08T17:01:06.248Z,18.90
2022-08-08T17:03:58.694Z,18.90
2022-08-08T17:06:36.523Z,18.80
2022-08-08T17:09:06.500Z,18.70
2022-08-08T17:11:38.742Z,18.60
2022-08-08T17:14:18.078Z,18.50
2022-08-08T17:16:57.721Z,18.50
2022-08-08T17:19:31.929Z,18.40
2022-08-08T17:22:10.751Z,18.30
2022-08-08T17:24:40.957Z,18.20
2022-08-08T17:27:08.765Z,18.10
2022-08-08T17:29:43.674Z,18.10
2022-08-08T17:32:29.073Z,18.00
2022-08-08T17:35:53.894Z,17.80
2022-08-08T17:37:53.244Z,17.70
2022-08-08T17:40:22.419Z,17.60
2022-08-08T17:42:51.655Z,17.50
2022-08-08T17:45:23.670Z,17.50
2022-08-08T17:47:54.633Z,17.50
2022-08-08T17:50:25.092Z,17.40
2022-08-08T17:52:57.481Z,17.30
2022-08-08T17:56:06.192Z,17.30
2022-08-08T17:58:17.604Z,17.20
2022-08-08T18:00:56.196Z,17.10
2022-08-08T18:03:26.612Z,17.00
2022-08-08T18:05:55.303Z,16.90
2022-08-08T18:08:25.113Z,16.80
2022-08-08T18:11:16.835Z,16.80
2022-08-08T18:13:46.975Z,16.70
2022-08-08T18:16:23.112Z,16.70
2022-08-08T18:18:56.323Z,16.60
2022-08-08T18:22:00.333Z,16.50
2022-08-08T18:24:30.159Z,16.40
2022-08-08T18:27:00.908Z,16.20
2022-08-08T18:29:35.569Z,16.10
2022-08-08T18:32:08.774Z,16.00
2022-08-08T18:34:42.718Z,15.90
2022-08-08T18:37:33.788Z,15.80
2022-08-08T18:40:14.742Z,15.60
2022-08-08T18:42:58.201Z,15.50
2022-08-08T18:46:53.041Z,15.40
2022-08-08T18:48:18.400Z,15.30
2022-08-08T18:50:50.296Z,15.20
2022-08-08T18:53:29.682Z,15.10
2022-08-08T18:56:31.389Z,14.90
2022-08-08T18:59:00.304Z,14.70
2022-08-08T19:02:27.691Z,14.70
2022-08-08T19:04:16.624Z,14.70
2022-08-08T19:06:47.071Z,14.50
2022-08-08T19:09:17.909Z,14.50
2022-08-08T19:11:51.074Z,14.50
2022-08-08T19:14:22.891Z,14.40
2022-08-08T19:16:50.598Z,14.30
2022-08-08T19:19:18.551Z,14.30
2022-08-08T19:21:49.940Z,14.30
2022-08-08T19:24:39.094Z,14.20
2022-08-08T19:27:10.767Z,14.20
2022-08-08T19:29:42.416Z,14.20
2022-08-08T19:32:17.928Z,14.30
2022-08-08T19:34:51.594Z,14.30
2022-08-08T19:37:43.240Z,14.30
2022-08-08T19:40:14.635Z,14.30
2022-08-08T19:42:47.242Z,14.20
2022-08-08T19:45:58.332Z,14.10
2022-08-08T19:48:29.199Z,14.20
2022-08-08T19:50:57.274Z,14.20
2022-08-08T19:53:53.595Z,14.20
2022-08-08T19:56:25.558Z,14.30
2022-08-08T19:59:07.574Z,14.30
2022-08-08T20:02:02.707Z,14.30
2022-08-08T20:04:24.526Z,14.30
2022-08-08T20:06:54.130Z,14.30
2022-08-08T20:09:25.685Z,14.20
2022-08-08T20:11:58.251Z,14.30
2022-08-08T20:14:34.098Z,14.40
2022-08-08T20:17:05.244Z,14.40
2022-08-08T20:19:42.282Z,14.40
2022-08-08T20:22:20.999Z,14.40
2022-08-08T20:25:00.233Z,14.40
2022-08-08T20:27:32.887Z,14.30
2022-08-08T20:30:53.178Z,14.20
2022-08-08T20:33:02.128Z,14.20
2022-08-08T20:35:32.878Z,14.30
2022-08-08T20:38:19.705Z,14.40
2022-08-08T20:40:57.767Z,14.50
2022-08-08T20:43:43.774Z,14.50
2022-08-08T20:46:14.907Z,14.50
2022-08-08T20:48:42.957Z,14.60
2022-08-08T20:51:14.429Z,14.50
2022-08-08T20:54:00.657Z,14.50
2022-08-08T20:56:36.023Z,14.50
2022-08-08T20:59:09.146Z,14.50
2022-08-08T21:02:06.488Z,14.40
2022-08-08T21:04:27.356Z,14.40
2022-08-08T21:06:58.425Z,14.40
2022-08-08T21:09:31.636Z,14.50
2022-08-08T21:12:16.575Z,14.60
2022-08-08T21:14:49.071Z,14.60
2022-08-08T21:17:17.401Z,14.60
2022-08-08T21:19:47.986Z,14.60
2022-08-08T21:22:16.047Z,14.60
2022-08-08T21:24:52.696Z,14.60
2022-08-08T21:28:05.886Z,14.60
2022-08-08T21:30:24.395Z,14.60
2022-08-08T21:32:53.488Z,14.60
2022-08-08T21:36:18.358Z,14.60
2022-08-08T21:38:17.013Z,14.70
2022-08-08T21:40:54.827Z,14.60
2022-08-08T21:43:34.825Z,14.80
2022-08-08T21:48:03.904Z,14.80
2022-08-08T21:49:04.650Z,14.70
2022-08-08T21:54:31.838Z,14.70
2022-08-08T21:54:54.890Z,14.60
2022-08-08T21:57:21.043Z,14.60
2022-08-08T22:00:02.539Z,14.50
2022-08-08T22:02:41.824Z,14.40
2022-08-08T22:05:11.999Z,14.40
2022-08-08T22:07:48.051Z,14.40
2022-08-08T22:10:32.170Z,14.50
2022-08-08T22:13:19.020Z,14.50
2022-08-08T22:15:58.931Z,14.50
2022-08-08T22:18:31.763Z,14.60
2022-08-08T22:21:14.288Z,14.60
2022-08-08T22:23:51.242Z,14.70
2022-08-08T22:26:27.663Z,14.70
2022-08-08T22:29:13.059Z,14.70
2022-08-08T22:31:58.327Z,14.70
2022-08-08T22:34:39.546Z,14.70
2022-08-08T22:37:14.870Z,14.70
2022-08-08T22:40:01.407Z,14.60
2022-08-08T22:42:34.787Z,14.50
2022-08-08T22:45:12.361Z,14.50
2022-08-08T22:47:49.124Z,14.50
2022-08-08T22:50:27.240Z,14.50
2022-08-08T22:54:32.154Z,14.50
2022-08-08T22:55:57.854Z,14.50
2022-08-08T22:58:34.116Z,14.50
2022-08-08T23:01:30.557Z,14.50
2022-08-08T23:03:56.229Z,14.50
2022-08-08T23:06:27.363Z,14.50
2022-08-08T23:08:58.713Z,14.50
2022-08-08T23:11:30.792Z,14.50
2022-08-08T23:14:19.634Z,14.60
2022-08-08T23:16:54.781Z,14.60
2022-08-08T23:19:30.871Z,14.70
2022-08-08T23:22:06.740Z,14.70
2022-08-08T23:24:41.445Z,14.70
2022-08-08T23:27:17.270Z,14.70
2022-08-08T23:30:00.274Z,14.70
2022-08-08T23:32:28.151Z,14.60
2022-08-08T23:34:58.761Z,14.60
2022-08-08T23:37:54.112Z,14.70
2022-08-08T23:40:18.515Z,14.70
2022-08-08T23:42:50.040Z,14.70
2022-08-08T23:49:02.101Z,14.60
2022-08-08T23:49:04.914Z,14.60
2022-08-08T23:50:57.319Z,14.60
2022-08-08T23:54:06.377Z,14.60
2022-08-08T23:56:13.500Z,14.60
2022-08-08T23:58:51.654Z,14.70
